Time;durP1;ratioP1;P1;durP2;ratioP2;P2;SDS_P1;SDS_P2;PMS_P1;PMS_P2;Temp;Humidity;BMP_temperature;BMP_pressure;BME280_temperature;BME280_humidity;BME280_pressure;Samples;Min_cycle;Max_cycle;Signal;HPM_P1;HPM_P2
2023/09/17 00:02:15;;;;;;;7.00;6.40;;;;;;;19.93;72.50;99299.44;5068542;28;20205;-79
2023/09/17 00:04:40;;;;;;;7.50;5.80;;;;;;;19.88;72.47;99294.59;5070587;28;20911;-80
2023/09/17 00:07:06;;;;;;;7.23;6.53;;;;;;;19.81;72.64;99293.59;5063439;28;20273;-79
2023/09/17 00:09:32;;;;;;;6.63;5.30;;;;;;;19.69;72.57;99286.09;5063912;28;20206;-79
2023/09/17 00:11:57;;;;;;;5.83;5.27;;;;;;;19.59;72.59;99295.03;5064135;28;20209;-79
2023/09/17 00:14:23;;;;;;;8.77;7.97;;;;;;;19.53;72.98;99284.19;5058681;28;20202;-79
2023/09/17 00:16:49;;;;;;;8.10;7.30;;;;;;;19.50;72.87;99290.69;5057805;28;20753;-80
2023/09/17 00:19:14;;;;;;;7.73;6.70;;;;;;;19.46;73.02;99290.16;5061114;28;20231;-79
2023/09/17 00:21:39;;;;;;;8.40;7.30;;;;;;;19.46;72.82;99284.81;5065341;28;20214;-79
2023/09/17 00:24:05;;;;;;;6.60;6.00;;;;;;;19.45;72.91;99277.00;5060676;28;20210;-79
2023/09/17 00:26:30;;;;;;;6.53;5.87;;;;;;;19.43;73.09;99294.97;5068672;28;20814;-80
2023/09/17 00:28:56;;;;;;;6.43;5.87;;;;;;;19.42;72.92;99288.81;5062500;28;20600;-79
2023/09/17 00:31:22;;;;;;;7.83;7.03;;;;;;;19.43;72.91;99292.31;5051572;28;20222;-79
2023/09/17 00:33:47;;;;;;;6.00;5.43;;;;;;;19.41;72.88;99292.47;5048863;28;20302;-80
2023/09/17 00:36:12;;;;;;;7.77;6.60;;;;;;;19.41;72.87;99289.81;5067866;28;20268;-79
2023/09/17 00:38:38;;;;;;;7.40;6.33;;;;;;;19.41;72.85;99291.63;5067770;28;20198;-80
2023/09/17 00:41:03;;;;;;;8.00;6.40;;;;;;;19.42;72.89;99288.81;5062549;28;20221;-79
2023/09/17 00:43:30;;;;;;;6.77;6.17;;;;;;;19.42;72.75;99296.00;5068735;28;20215;-79
2023/09/17 00:45:55;;;;;;;7.60;6.67;;;;;;;19.40;72.96;99296.13;5071024;28;20209;-80
2023/09/17 00:48:21;;;;;;;9.57;7.03;;;;;;;19.38;72.91;99305.28;5061436;28;20452;-79
2023/09/17 00:50:47;;;;;;;8.57;6.77;;;;;;;19.37;72.89;99306.28;5041633;28;20467;-80
2023/09/17 00:53:13;;;;;;;11.30;6.67;;;;;;;19.35;73.14;99301.13;5064009;28;20699;-79
2023/09/17 00:55:40;;;;;;;5.83;5.17;;;;;;;19.34;73.03;99306.63;5045607;28;20267;-80
2023/09/17 00:58:06;;;;;;;6.40;5.57;;;;;;;19.29;73.06;99309.75;5067708;28;20929;-80
2023/09/17 01:00:35;;;;;;;8.03;5.87;;;;;;;19.19;73.11;99317.84;5061450;28;20923;-79
2023/09/17 01:03:02;;;;;;;6.80;6.10;;;;;;;19.10;73.55;99310.84;5060993;28;20806;-79
2023/09/17 01:05:36;;;;;;;7.60;6.33;;;;;;;19.04;73.52;99308.81;5063360;28;20527;-79
2023/09/17 01:08:06;;;;;;;7.10;5.60;;;;;;;19.03;73.76;99315.13;5063041;28;20496;-79
2023/09/17 01:10:35;;;;;;;6.17;5.60;;;;;;;19.06;73.53;99303.31;5061230;28;20821;-79
2023/09/17 01:13:03;;;;;;;8.03;6.73;;;;;;;19.07;73.33;99299.69;5041104;28;20458;-79
2023/09/17 01:15:29;;;;;;;8.70;6.83;;;;;;;19.07;73.59;99300.50;5060309;28;21080;-79
2023/09/17 01:17:57;;;;;;;6.80;5.90;;;;;;;19.08;73.52;99296.84;5056602;28;20558;-79
2023/09/17 01:20:30;;;;;;;7.03;6.30;;;;;;;19.09;73.48;99292.34;5039816;28;20459;-79
2023/09/17 01:23:03;;;;;;;12.70;6.10;;;;;;;19.07;73.38;99297.84;5065221;28;20615;-78
2023/09/17 01:25:49;;;;;;;10.30;6.90;;;;;;;19.07;73.34;99307.69;5065691;28;20500;-78
2023/09/17 01:28:14;;;;;;;7.83;5.20;;;;;;;19.05;73.25;99302.50;5040293;28;20463;-79
2023/09/17 01:30:41;;;;;;;7.00;5.83;;;;;;;19.01;73.45;99307.31;5044385;28;21490;-79
2023/09/17 01:33:09;;;;;;;7.17;5.97;;;;;;;18.97;73.67;99311.28;5061132;28;20672;-81
2023/09/17 01:35:43;;;;;;;6.93;6.10;;;;;;;18.95;73.65;99310.59;5050823;28;20814;-79
2023/09/17 01:38:13;;;;;;;5.57;4.97;;;;;;;18.94;73.71;99305.44;5044961;28;20546;-79
2023/09/17 01:40:42;;;;;;;6.17;5.50;;;;;;;18.95;73.72;99307.09;5064308;28;20887;-79
2023/09/17 01:43:07;;;;;;;6.13;5.53;;;;;;;18.94;73.65;99305.44;5063102;28;21082;-79
2023/09/17 01:45:34;;;;;;;8.10;6.33;;;;;;;18.90;73.79;99310.25;5063131;28;20534;-79
2023/09/17 01:48:01;;;;;;;6.13;5.63;;;;;;;18.88;74.24;99325.53;5046437;28;20476;-79
2023/09/17 01:50:28;;;;;;;10.37;6.37;;;;;;;18.86;74.20;99321.38;5059056;28;20497;-79
2023/09/17 01:52:55;;;;;;;7.80;7.00;;;;;;;18.85;74.33;99327.66;5058769;28;20456;-79
2023/09/17 01:55:22;;;;;;;8.03;5.60;;;;;;;18.85;74.15;99325.00;5059497;28;20479;-79
2023/09/17 01:57:48;;;;;;;6.83;6.07;;;;;;;18.84;74.40;99323.34;5038616;28;20466;-79
2023/09/17 02:00:16;;;;;;;8.70;5.47;;;;;;;18.87;74.27;99320.38;5059550;28;20446;-79
2023/09/17 02:02:50;;;;;;;7.97;6.87;;;;;;;18.89;74.17;99323.72;5042974;28;20451;-79
2023/09/17 02:05:16;;;;;;;6.43;5.50;;;;;;;18.91;74.30;99319.91;5039923;28;21153;-79
2023/09/17 02:07:45;;;;;;;6.53;5.10;;;;;;;18.96;74.19;99322.09;5064394;28;20529;-79
2023/09/17 02:10:11;;;;;;;6.80;6.10;;;;;;;19.00;74.20;99315.44;5064914;28;20467;-79
2023/09/17 02:12:36;;;;;;;7.30;5.60;;;;;;;19.05;74.12;99313.16;5062021;28;20982;-78
2023/09/17 02:15:03;;;;;;;6.73;6.10;;;;;;;19.09;73.86;99317.16;5048264;28;20295;-79
2023/09/17 02:17:28;;;;;;;6.60;5.50;;;;;;;19.11;73.82;99317.00;5042839;28;20197;-79
2023/09/17 02:19:54;;;;;;;7.17;5.23;;;;;;;19.09;73.69;99322.50;5047442;28;20458;-79
2023/09/17 02:22:20;;;;;;;6.53;5.87;;;;;;;19.09;73.65;99327.81;5042800;28;20630;-79
2023/09/17 02:24:46;;;;;;;5.43;4.93;;;;;;;19.07;73.73;99321.81;5059055;28;20455;-78
2023/09/17 02:27:13;;;;;;;7.67;6.67;;;;;;;19.08;73.66;99326.13;5049642;28;20669;-78
2023/09/17 02:29:40;;;;;;;6.97;5.83;;;;;;;19.08;73.41;99317.31;5036075;28;20448;-79
2023/09/17 02:32:09;;;;;;;7.63;5.67;;;;;;;19.08;73.68;99323.47;5066658;28;20458;-79
2023/09/17 02:34:37;;;;;;;7.00;5.60;;;;;;;19.05;73.41;99309.66;5061172;28;20520;-79
2023/09/17 02:37:02;;;;;;;7.27;5.63;;;;;;;19.02;73.60;99313.47;5025206;28;21186;-79
2023/09/17 02:39:28;;;;;;;5.90;5.30;;;;;;;18.99;73.41;99308.47;5059869;28;21116;-78
2023/09/17 02:41:53;;;;;;;7.93;6.10;;;;;;;18.93;73.75;99306.41;5067176;28;20189;-79
2023/09/17 02:44:20;;;;;;;6.07;5.30;;;;;;;18.89;73.51;99310.41;5043611;28;20201;-79
2023/09/17 02:46:46;;;;;;;6.03;5.43;;;;;;;18.85;73.99;99301.06;5043652;28;20704;-79
2023/09/17 02:49:11;;;;;;;4.97;4.47;;;;;;;18.80;74.06;99304.22;5063100;28;20467;-79
2023/09/17 02:51:37;;;;;;;12.23;5.70;;;;;;;18.76;74.02;99302.84;5044318;28;20739;-79
2023/09/17 02:54:03;;;;;;;7.10;5.73;;;;;;;18.75;74.24;99291.38;5066882;28;20193;-78
2023/09/17 02:56:29;;;;;;;6.03;5.30;;;;;;;18.75;74.17;99295.84;5066881;28;20298;-79
2023/09/17 02:58:54;;;;;;;10.33;5.63;;;;;;;18.74;74.16;99288.81;5064999;28;20456;-79
2023/09/17 03:01:20;;;;;;;10.20;5.90;;;;;;;18.76;74.14;99298.34;5061897;28;20249;-79
2023/09/17 03:03:46;;;;;;;8.57;6.73;;;;;;;18.77;74.11;99291.22;5066622;28;20200;-79
2023/09/17 03:06:11;;;;;;;8.47;5.23;;;;;;;18.77;74.01;99293.88;5065030;28;20200;-79
2023/09/17 03:08:41;;;;;;;6.53;5.33;;;;;;;18.75;73.90;99294.03;5069280;28;20665;-79
2023/09/17 03:11:17;;;;;;;6.50;5.13;;;;;;;18.76;73.82;99293.03;5069310;28;20509;-78
2023/09/17 03:13:46;;;;;;;4.83;4.33;;;;;;;18.77;73.72;99286.72;5044936;28;20501;-79
2023/09/17 03:16:15;;;;;;;5.97;4.50;;;;;;;18.77;73.69;99288.56;5047257;28;21061;-79
2023/09/17 03:18:42;;;;;;;7.27;4.50;;;;;;;18.72;73.42;99282.84;5065139;28;20438;-79
2023/09/17 03:21:09;;;;;;;6.80;4.27;;;;;;;18.66;73.79;99288.78;5048579;28;20828;-79
2023/09/17 03:23:35;;;;;;;5.73;5.13;;;;;;;18.58;74.03;99281.59;5051682;28;20451;-78
2023/09/17 03:26:01;;;;;;;5.60;5.07;;;;;;;18.52;73.94;99280.41;5059385;28;20446;-78
2023/09/17 03:28:32;;;;;;;5.63;4.23;;;;;;;18.48;74.06;99280.88;5062548;28;20479;-83
2023/09/17 03:30:58;;;;;;;5.07;4.57;;;;;;;18.44;74.00;99277.66;5046801;28;20455;-81
2023/09/17 03:33:25;;;;;;;5.27;4.77;;;;;;;18.41;74.24;99275.31;5058949;28;21052;-81
2023/09/17 03:35:54;;;;;;;5.13;4.73;;;;;;;18.40;74.21;99278.97;5044923;28;20447;-82
2023/09/17 03:38:21;;;;;;;7.07;5.17;;;;;;;18.37;74.15;99276.63;5038542;28;20506;-82
2023/09/17 03:40:47;;;;;;;6.27;4.67;;;;;;;18.34;74.15;99290.25;5058609;28;20622;-82
2023/09/17 03:43:14;;;;;;;9.00;5.23;;;;;;;18.30;74.18;99287.03;5041114;28;20649;-82
2023/09/17 03:45:40;;;;;;;4.70;4.03;;;;;;;18.27;74.23;99292.69;5046216;28;20482;-82
2023/09/17 03:48:07;;;;;;;5.43;4.90;;;;;;;18.23;74.38;99295.81;5041957;28;20197;-82
2023/09/17 03:50:33;;;;;;;6.53;5.13;;;;;;;18.19;74.38;99292.63;5045838;28;20558;-82
2023/09/17 03:53:02;;;;;;;4.73;4.20;;;;;;;18.16;74.32;99292.09;5064582;28;20710;-82
2023/09/17 03:55:28;;;;;;;5.87;5.13;;;;;;;18.13;74.28;99294.06;5060675;28;20447;-82
2023/09/17 03:57:57;;;;;;;5.83;4.20;;;;;;;18.12;74.45;99294.25;5050396;28;21236;-82
2023/09/17 04:00:24;;;;;;;5.47;4.40;;;;;;;18.13;74.25;99290.59;5043843;28;20878;-82
2023/09/17 04:02:49;;;;;;;6.30;5.80;;;;;;;18.15;74.24;99288.59;5039385;28;20612;-82
2023/09/17 04:05:16;;;;;;;4.90;4.40;;;;;;;18.16;73.79;99295.59;5038931;28;20463;-82
2023/09/17 04:07:44;;;;;;;5.33;3.83;;;;;;;18.13;74.01;99290.59;5058340;28;20454;-81
2023/09/17 04:10:12;;;;;;;4.80;4.37;;;;;;;18.13;73.98;99288.75;5061501;28;20877;-82
2023/09/17 04:12:40;;;;;;;5.77;4.67;;;;;;;18.15;73.93;99299.25;5060050;28;20458;-82
2023/09/17 04:15:12;;;;;;;5.53;4.80;;;;;;;18.18;73.60;99293.63;5058580;28;20462;-82
2023/09/17 04:17:38;;;;;;;5.60;4.83;;;;;;;18.21;73.83;99300.44;5041642;28;20455;-82
2023/09/17 04:20:09;;;;;;;4.80;4.37;;;;;;;18.24;73.60;99297.47;5062040;28;21305;-82
2023/09/17 04:22:35;;;;;;;5.50;5.00;;;;;;;18.23;73.52;99295.81;5042031;28;20727;-82
2023/09/17 04:25:00;;;;;;;5.43;4.90;;;;;;;18.22;73.59;99291.47;5060897;28;20506;-81
2023/09/17 04:27:26;;;;;;;5.77;4.60;;;;;;;18.21;73.28;99301.28;5039216;28;20995;-82
2023/09/17 04:29:52;;;;;;;16.23;6.57;;;;;;;18.19;73.56;99297.09;5036870;28;20729;-81
2023/09/17 04:32:19;;;;;;;7.33;5.13;;;;;;;18.14;73.53;99303.69;5039838;28;20464;-82
2023/09/17 04:34:44;;;;;;;6.83;5.03;;;;;;;18.14;73.36;99302.88;5040757;28;20564;-82
2023/09/17 04:37:10;;;;;;;7.93;6.30;;;;;;;18.10;73.56;99301.53;5039413;28;20495;-82
2023/09/17 04:39:36;;;;;;;7.17;4.93;;;;;;;18.06;73.70;99306.28;5029712;28;20311;-82
2023/09/17 04:42:03;;;;;;;6.20;4.40;;;;;;;18.03;73.95;99305.78;5045136;28;20966;-81
2023/09/17 04:44:29;;;;;;;6.40;4.73;;;;;;;18.02;73.84;99309.44;5041011;28;20449;-82
2023/09/17 04:46:54;;;;;;;6.57;5.60;;;;;;;18.02;73.66;99315.56;5063385;28;20517;-81
2023/09/17 04:49:22;;;;;;;5.90;5.30;;;;;;;18.02;73.65;99304.94;5037065;28;20280;-82
2023/09/17 04:51:48;;;;;;;6.23;5.33;;;;;;;18.00;73.52;99316.72;5039768;28;20482;-81
2023/09/17 04:54:13;;;;;;;4.87;4.33;;;;;;;17.95;73.44;99309.19;5042155;28;20604;-82
2023/09/17 04:56:39;;;;;;;6.03;4.87;;;;;;;17.90;73.75;99308.81;5045649;28;20200;-81
2023/09/17 04:59:04;;;;;;;5.70;5.00;;;;;;;17.89;73.55;99309.81;5041439;28;20192;-82
2023/09/17 05:01:30;;;;;;;5.73;5.17;;;;;;;17.89;73.63;99312.47;5045553;28;20193;-82
2023/09/17 05:03:57;;;;;;;5.93;4.37;;;;;;;17.89;73.59;99312.47;5042727;28;20250;-82
2023/09/17 05:06:22;;;;;;;8.60;5.07;;;;;;;17.87;73.53;99315.25;5044654;28;20641;-82
2023/09/17 05:08:48;;;;;;;5.90;4.40;;;;;;;17.82;73.40;99311.38;5043613;28;21110;-82
2023/09/17 05:11:13;;;;;;;6.70;4.77;;;;;;;17.77;73.71;99311.81;5047340;28;20576;-82
2023/09/17 05:13:39;;;;;;;5.80;5.00;;;;;;;17.77;73.78;99310.97;5041905;28;20724;-82
2023/09/17 05:16:06;;;;;;;5.43;4.90;;;;;;;17.80;73.57;99316.03;5045206;28;20197;-82
2023/09/17 05:18:31;;;;;;;5.60;5.03;;;;;;;17.84;73.33;99328.00;5045051;28;20450;-82
2023/09/17 05:20:57;;;;;;;5.33;4.80;;;;;;;17.87;73.40;99327.72;5062148;28;20498;-82
2023/09/17 05:23:23;;;;;;;5.63;4.90;;;;;;;17.87;73.41;99319.75;5041029;28;20245;-82
2023/09/17 05:25:55;;;;;;;7.00;5.70;;;;;;;17.90;73.26;99325.59;5043760;28;20706;-82
2023/09/17 05:28:21;;;;;;;6.83;5.13;;;;;;;17.94;73.11;99331.44;5039464;28;20486;-82
2023/09/17 05:30:47;;;;;;;7.33;5.27;;;;;;;17.98;73.20;99318.69;5065335;28;20501;-82
2023/09/17 05:33:15;;;;;;;6.07;5.40;;;;;;;18.04;72.98;99324.22;5059611;28;20446;-82
2023/09/17 05:35:42;;;;;;;6.68;5.72;;;;;;;18.10;72.54;99320.13;5051382;28;20436;-81
2023/09/17 05:38:07;;;;;;;4.77;4.37;;;;;;;18.14;72.61;99321.47;5044381;28;20628;-82
2023/09/17 05:40:34;;;;;;;5.50;4.37;;;;;;;18.19;72.49;99319.19;5047719;28;20425;-82
2023/09/17 05:42:59;;;;;;;5.70;4.67;;;;;;;18.25;72.32;99323.06;5046298;28;20480;-81
2023/09/17 05:45:26;;;;;;;7.23;4.50;;;;;;;18.31;72.16;99325.97;5045426;28;20446;-82
2023/09/17 05:47:52;;;;;;;9.43;5.13;;;;;;;18.38;71.65;99320.84;5041355;28;20287;-82
2023/09/17 05:50:18;;;;;;;5.00;4.50;;;;;;;18.45;71.52;99316.59;5042593;28;20562;-82
2023/09/17 05:52:44;;;;;;;6.27;5.30;;;;;;;18.54;71.54;99320.97;5064056;28;20707;-82
2023/09/17 05:55:09;;;;;;;8.00;6.60;;;;;;;18.62;71.34;99322.84;5042219;28;20720;-82
2023/09/17 05:57:35;;;;;;;5.73;4.83;;;;;;;18.71;71.04;99321.06;5046414;28;20196;-82
2023/09/17 06:00:03;;;;;;;6.87;4.57;;;;;;;18.80;70.59;99320.16;5038972;28;20227;-82
2023/09/17 06:02:40;;;;;;;5.10;4.33;;;;;;;18.90;70.46;99326.22;5059245;28;20469;-82
2023/09/17 06:05:05;;;;;;;10.07;5.60;;;;;;;18.98;70.21;99323.59;5037270;28;20531;-82
2023/09/17 06:07:31;;;;;;;8.10;6.60;;;;;;;19.09;70.20;99316.31;5040704;28;20597;-82
2023/09/17 06:09:56;;;;;;;5.57;4.87;;;;;;;19.18;69.78;99313.53;5065728;28;20201;-82
2023/09/17 06:12:22;;;;;;;5.67;4.80;;;;;;;19.28;69.57;99320.56;5042038;28;20393;-82
2023/09/17 06:14:48;;;;;;;5.40;4.90;;;;;;;19.34;69.36;99311.94;5062567;28;20191;-82
2023/09/17 06:17:14;;;;;;;6.50;5.33;;;;;;;19.36;69.40;99326.78;5044175;28;20827;-82
2023/09/17 06:19:39;;;;;;;6.97;5.03;;;;;;;19.37;69.17;99324.94;5062946;28;20471;-82
2023/09/17 06:22:04;;;;;;;7.63;5.93;;;;;;;19.39;69.37;99325.63;5035696;28;20193;-82
2023/09/17 06:24:31;;;;;;;6.67;6.00;;;;;;;19.43;69.34;99329.59;5044659;28;20281;-82
2023/09/17 06:26:56;;;;;;;5.70;4.70;;;;;;;19.46;69.21;99331.94;5047677;28;20439;-82
2023/09/17 06:29:22;;;;;;;7.10;5.93;;;;;;;19.53;69.14;99337.47;5059350;28;20626;-82
2023/09/17 06:31:48;;;;;;;6.93;5.50;;;;;;;19.62;68.87;99337.31;5042081;28;20235;-82
2023/09/17 06:34:13;;;;;;;8.20;5.60;;;;;;;19.72;68.67;99331.91;5045373;28;20272;-81
2023/09/17 06:36:39;;;;;;;7.13;5.50;;;;;;;19.83;68.43;99328.09;5037543;28;20426;-82
2023/09/17 06:39:06;;;;;;;4.60;3.80;;;;;;;19.97;68.30;99338.09;5040460;28;20680;-82
2023/09/17 06:41:32;;;;;;;7.17;5.47;;;;;;;20.04;67.83;99332.94;5056698;28;20568;-82
2023/09/17 06:43:58;;;;;;;6.10;4.90;;;;;;;20.13;67.67;99328.44;5059944;28;20452;-82
2023/09/17 06:46:24;;;;;;;7.67;5.80;;;;;;;20.22;67.44;99322.13;5065466;28;20956;-83
2023/09/17 06:48:50;;;;;;;5.13;4.37;;;;;;;20.29;67.21;99331.94;5066067;28;20185;-82
2023/09/17 06:51:16;;;;;;;5.13;4.57;;;;;;;20.39;67.19;99330.94;5061213;28;20610;-82
2023/09/17 06:53:42;;;;;;;5.60;4.10;;;;;;;20.47;66.76;99336.31;5061358;28;20522;-83
2023/09/17 06:56:08;;;;;;;5.43;4.93;;;;;;;20.55;66.66;99339.81;5067255;28;20415;-82
2023/09/17 06:58:34;;;;;;;6.00;4.80;;;;;;;20.63;66.52;99338.97;5064376;28;20732;-82
2023/09/17 07:01:00;;;;;;;5.33;4.50;;;;;;;20.70;66.26;99333.78;5066647;28;20446;-83
2023/09/17 07:03:25;;;;;;;5.27;4.40;;;;;;;20.77;66.48;99334.78;5062059;28;20430;-82
2023/09/17 07:05:51;;;;;;;6.20;4.83;;;;;;;20.86;66.12;99328.41;5064650;28;20231;-82
2023/09/17 07:08:16;;;;;;;6.30;4.70;;;;;;;20.96;66.25;99328.22;5062110;28;20251;-83
2023/09/17 07:10:43;;;;;;;6.50;4.87;;;;;;;21.03;65.92;99331.84;5069584;28;20582;-82
2023/09/17 07:13:09;;;;;;;4.70;3.70;;;;;;;21.05;65.79;99329.84;5064184;28;20205;-82
2023/09/17 07:15:35;;;;;;;6.37;3.47;;;;;;;21.13;65.49;99329.00;5063452;28;20432;-82
2023/09/17 07:18:00;;;;;;;5.17;3.90;;;;;;;21.25;65.07;99322.25;5066813;28;20692;-82
2023/09/17 07:20:26;;;;;;;4.10;2.90;;;;;;;21.38;64.58;99325.25;5065454;28;20270;-82
2023/09/17 07:22:51;;;;;;;4.10;3.03;;;;;;;21.50;64.36;99333.72;5061965;28;20207;-82
2023/09/17 07:25:17;;;;;;;7.73;3.63;;;;;;;21.62;63.78;99331.47;5064434;28;20211;-82
2023/09/17 07:27:42;;;;;;;7.90;4.00;;;;;;;21.74;63.42;99330.09;5066521;28;20519;-82
2023/09/17 07:30:08;;;;;;;5.50;3.20;;;;;;;21.87;62.78;99326.81;5066197;28;20212;-82
2023/09/17 07:32:33;;;;;;;4.00;3.70;;;;;;;21.95;62.48;99329.44;5061865;28;20198;-82
2023/09/17 07:35:02;;;;;;;3.73;3.20;;;;;;;22.06;62.11;99323.69;5074960;28;20198;-82
2023/09/17 07:37:28;;;;;;;5.10;2.87;;;;;;;22.17;62.08;99329.59;5086570;28;20209;-82
2023/09/17 07:40:01;;;;;;;4.90;2.80;;;;;;;22.29;61.70;99322.88;5082256;28;20466;-82
2023/09/17 07:42:27;;;;;;;5.57;2.83;;;;;;;22.63;60.67;99321.53;5068396;28;20465;-82
2023/09/17 07:44:52;;;;;;;6.30;3.13;;;;;;;23.32;59.08;99319.47;5072916;28;20609;-82
2023/09/17 07:47:18;;;;;;;3.93;3.00;;;;;;;24.13;57.16;99311.28;5066742;28;20492;-83
2023/09/17 07:49:43;;;;;;;3.57;2.70;;;;;;;24.90;55.16;99309.66;5072197;28;20401;-82
2023/09/17 07:52:09;;;;;;;4.30;3.33;;;;;;;25.70;53.21;99310.81;5064897;28;20493;-82
2023/09/17 07:54:42;;;;;;;7.73;3.20;;;;;;;26.47;51.25;99304.13;5066166;28;20437;-83
2023/09/17 07:57:10;;;;;;;4.63;2.50;;;;;;;27.03;49.80;99310.06;5062671;28;20202;-83
2023/09/17 07:59:36;;;;;;;6.30;2.63;;;;;;;27.46;48.98;99304.94;5065220;28;20658;-82
2023/09/17 08:02:02;;;;;;;3.23;2.90;;;;;;;27.75;47.95;99300.84;5067309;28;20456;-83
2023/09/17 08:04:28;;;;;;;4.00;2.93;;;;;;;27.87;47.40;99292.94;5067646;28;20227;-85
2023/09/17 08:06:54;;;;;;;3.47;2.90;;;;;;;27.93;47.06;99289.34;5068036;28;20460;-83
2023/09/17 08:09:19;;;;;;;3.37;2.50;;;;;;;27.98;46.88;99294.94;5067375;28;20248;-83
2023/09/17 08:11:45;;;;;;;3.80;2.70;;;;;;;28.30;46.44;99291.34;5070634;28;20196;-83
2023/09/17 08:14:10;;;;;;;3.90;2.93;;;;;;;28.61;45.80;99293.19;5066466;28;20688;-83
2023/09/17 08:16:37;;;;;;;3.63;2.90;;;;;;;28.80;45.49;99297.56;5067712;28;20189;-84
2023/09/17 08:19:03;;;;;;;3.07;2.70;;;;;;;29.02;45.39;99297.94;5066438;28;20605;-85
2023/09/17 08:21:28;;;;;;;4.00;3.10;;;;;;;29.26;44.83;99296.25;5047338;28;20466;-84
2023/09/17 08:23:54;;;;;;;2.93;2.70;;;;;;;29.36;45.19;99300.31;5065780;28;20461;-83
2023/09/17 08:26:21;;;;;;;3.70;3.30;;;;;;;29.38;45.10;99298.19;5063263;28;20695;-83
2023/09/17 08:28:47;;;;;;;3.37;2.83;;;;;;;29.52;44.76;99299.69;5066617;28;20216;-83
2023/09/17 08:31:12;;;;;;;4.63;2.50;;;;;;;29.83;44.44;99292.41;5066808;28;20775;-84
2023/09/17 08:33:38;;;;;;;4.40;2.47;;;;;;;30.10;43.97;99300.94;5066129;28;20465;-85
2023/09/17 08:36:05;;;;;;;4.30;3.33;;;;;;;30.24;43.57;99305.09;5062269;28;20307;-85
2023/09/17 08:38:31;;;;;;;3.57;2.80;;;;;;;30.41;43.22;99303.38;5061636;28;20246;-83
2023/09/17 08:41:01;;;;;;;3.50;2.53;;;;;;;30.65;42.62;99301.50;5064665;28;20975;-84
2023/09/17 08:43:27;;;;;;;5.03;3.63;;;;;;;30.80;42.23;99305.59;5068893;28;20920;-83
2023/09/17 08:45:53;;;;;;;5.00;3.23;;;;;;;30.86;42.18;99304.69;5068257;28;20455;-84
2023/09/17 08:48:19;;;;;;;4.07;3.03;;;;;;;30.89;41.52;99306.91;5067975;28;20700;-84
2023/09/17 08:50:50;;;;;;;3.53;3.23;;;;;;;31.07;41.36;99295.09;5068959;28;20494;-84
2023/09/17 08:53:19;;;;;;;3.53;2.60;;;;;;;31.16;41.28;99288.22;5066240;28;20526;-84
2023/09/17 08:55:50;;;;;;;4.30;3.10;;;;;;;31.13;41.12;99290.59;5036918;28;20642;-85
2023/09/17 08:58:21;;;;;;;6.47;2.80;;;;;;;31.16;40.65;99287.41;5067655;28;20880;-84
2023/09/17 09:00:50;;;;;;;2.80;2.60;;;;;;;31.32;40.25;99281.22;5074821;28;20543;-86
2023/09/17 09:03:23;;;;;;;3.10;2.80;;;;;;;31.28;40.14;99280.06;5070904;28;20504;-84
2023/09/17 09:05:50;;;;;;;6.93;3.20;;;;;;;31.08;40.39;99275.88;5074090;28;20584;-84
2023/09/17 09:08:22;;;;;;;3.40;2.67;;;;;;;31.00;40.60;99267.28;5070373;28;20197;-85
2023/09/17 09:10:50;;;;;;;6.00;2.60;;;;;;;30.91;40.58;99266.81;5069203;28;20470;-87
2023/09/17 09:13:17;;;;;;;2.60;2.40;;;;;;;30.63;40.54;99267.56;5070776;28;21101;-87
2023/09/17 09:15:43;;;;;;;9.10;2.67;;;;;;;30.40;41.40;99258.34;5070921;28;20459;-85
2023/09/17 09:18:09;;;;;;;6.03;3.17;;;;;;;30.28;42.06;99257.53;5073539;28;21198;-85
2023/09/17 09:20:36;;;;;;;4.57;2.43;;;;;;;30.13;42.19;99257.94;5075250;28;20478;-85
2023/09/17 09:23:02;;;;;;;3.50;2.73;;;;;;;30.10;42.54;99258.41;5067949;28;20208;-87
2023/09/17 09:25:28;;;;;;;3.10;2.57;;;;;;;30.02;42.46;99258.75;5066983;28;20451;-85
2023/09/17 09:28:03;;;;;;;3.67;2.50;;;;;;;29.89;42.98;99261.69;5069789;28;20192;-85
2023/09/17 09:30:29;;;;;;;3.67;2.20;;;;;;;29.84;43.37;99256.13;5067190;28;20476;-83
2023/09/17 09:32:55;;;;;;;2.87;2.47;;;;;;;29.87;43.38;99252.97;5064746;28;20522;-83
2023/09/17 09:35:21;;;;;;;2.73;2.37;;;;;;;30.04;43.16;99248.53;5070258;28;20204;-84
2023/09/17 09:37:48;;;;;;;3.10;2.67;;;;;;;30.15;43.28;99234.16;5067511;28;20525;-87
2023/09/17 09:40:14;;;;;;;4.30;2.47;;;;;;;30.28;42.69;99241.28;5064668;28;20508;-83
2023/09/17 09:42:39;;;;;;;4.07;2.53;;;;;;;30.41;42.19;99237.53;5067170;28;20956;-82
2023/09/17 09:45:12;;;;;;;6.80;2.87;;;;;;;30.50;41.12;99230.66;5065284;28;20456;-85
2023/09/17 09:47:37;;;;;;;5.57;3.37;;;;;;;30.53;41.38;99224.78;5069537;28;20200;-82
2023/09/17 09:50:03;;;;;;;3.73;2.80;;;;;;;30.45;41.13;99225.13;5066882;28;20478;-88
2023/09/17 09:52:29;;;;;;;2.40;2.17;;;;;;;30.37;41.54;99233.63;5049223;28;20192;-82
2023/09/17 09:54:54;;;;;;;5.57;2.40;;;;;;;30.29;40.94;99223.94;5065246;28;20201;-87
2023/09/17 09:57:20;;;;;;;3.30;2.93;;;;;;;30.32;41.41;99225.38;5068327;28;20557;-82
2023/09/17 09:59:50;;;;;;;3.20;2.40;;;;;;;30.37;40.50;99226.31;5067811;28;20192;-83
2023/09/17 10:02:20;;;;;;;4.97;2.50;;;;;;;30.39;40.25;99226.09;5068894;28;20192;-86
2023/09/17 10:04:46;;;;;;;2.83;2.53;;;;;;;30.40;40.31;99225.00;5070861;28;20459;-83
2023/09/17 10:07:14;;;;;;;2.97;2.33;;;;;;;30.51;40.67;99221.47;5065392;28;20494;-82
2023/09/17 10:09:41;;;;;;;3.20;2.70;;;;;;;30.56;40.16;99229.72;5064790;28;20242;-86
2023/09/17 10:12:07;;;;;;;2.30;2.10;;;;;;;30.57;40.51;99220.53;5069864;28;20482;-83
2023/09/17 10:14:36;;;;;;;2.20;1.93;;;;;;;30.53;40.89;99216.63;5066078;28;20462;-82
2023/09/17 10:17:05;;;;;;;5.67;2.27;;;;;;;30.50;40.92;99216.28;5067129;28;21095;-86
2023/09/17 10:19:33;;;;;;;7.47;2.50;;;;;;;30.57;40.64;99214.25;5066412;28;20958;-82
2023/09/17 10:22:00;;;;;;;3.57;2.17;;;;;;;30.71;40.95;99221.09;5070024;28;20500;-82
2023/09/17 10:24:26;;;;;;;3.20;2.40;;;;;;;30.81;40.30;99209.66;5066855;28;20598;-85
2023/09/17 10:26:54;;;;;;;3.93;2.00;;;;;;;30.83;40.32;99211.06;5068402;28;20454;-85
2023/09/17 10:29:21;;;;;;;2.63;2.00;;;;;;;30.88;40.26;99210.34;5066258;28;20474;-86
2023/09/17 10:31:48;;;;;;;2.90;1.93;;;;;;;30.94;40.31;99209.38;5069899;28;20475;-85
2023/09/17 10:34:16;;;;;;;2.10;1.70;;;;;;;30.97;39.84;99211.63;5066540;28;20446;-83
2023/09/17 10:36:42;;;;;;;3.10;2.57;;;;;;;30.90;39.64;99202.81;5069322;28;20483;-84
2023/09/17 10:39:10;;;;;;;4.03;2.50;;;;;;;30.88;39.54;99202.22;5067926;28;20828;-86
2023/09/17 10:41:37;;;;;;;3.53;2.43;;;;;;;30.87;39.73;99197.88;5067813;28;20506;-84
2023/09/17 10:44:04;;;;;;;4.10;2.67;;;;;;;30.89;39.45;99195.72;5069386;28;20508;-83
2023/09/17 10:46:31;;;;;;;3.13;1.70;;;;;;;30.98;38.58;99197.00;5066484;28;20443;-85
2023/09/17 10:48:58;;;;;;;4.30;2.80;;;;;;;31.12;37.89;99185.88;5066607;28;20439;-83
2023/09/17 10:51:26;;;;;;;3.30;1.47;;;;;;;31.20;37.14;99189.03;5067796;28;20446;-83
2023/09/17 10:53:52;;;;;;;2.60;1.40;;;;;;;31.26;36.08;99195.38;5065341;28;20480;-83
2023/09/17 10:56:18;;;;;;;2.00;1.60;;;;;;;31.21;35.69;99187.13;5067118;28;20534;-87
2023/09/17 10:58:46;;;;;;;3.67;2.53;;;;;;;31.16;35.58;99182.41;5067184;28;20503;-86
2023/09/17 11:01:15;;;;;;;2.60;1.33;;;;;;;31.12;35.00;99177.75;5068932;28;20477;-85
2023/09/17 11:03:46;;;;;;;2.50;1.40;;;;;;;31.22;34.86;99184.19;5065821;28;20451;-86
2023/09/17 11:06:16;;;;;;;2.27;1.83;;;;;;;31.35;34.08;99179.50;5063984;28;20499;-87
2023/09/17 11:08:49;;;;;;;4.03;1.70;;;;;;;31.48;34.03;99173.81;5070483;28;20629;-85
2023/09/17 11:11:16;;;;;;;2.60;1.60;;;;;;;31.48;34.09;99171.91;5067370;28;20932;-85
2023/09/17 11:13:48;;;;;;;6.17;3.00;;;;;;;31.48;33.72;99169.19;5065574;28;20471;-86
2023/09/17 11:16:35;;;;;;;2.03;1.80;;;;;;;31.49;34.30;99170.03;5074783;28;20458;-83
2023/09/17 11:19:05;;;;;;;3.07;1.73;;;;;;;31.51;34.55;99167.88;5071378;28;20455;-83
2023/09/17 11:21:34;;;;;;;2.03;1.70;;;;;;;31.50;34.53;99177.09;5071233;28;21002;-83
2023/09/17 11:24:05;;;;;;;3.87;1.90;;;;;;;31.53;33.98;99173.91;5069707;28;20461;-83
2023/09/17 11:26:38;;;;;;;5.20;1.80;;;;;;;31.56;33.61;99170.69;5069833;28;20454;-85
2023/09/17 11:29:07;;;;;;;2.27;1.50;;;;;;;31.50;33.68;99175.22;5066804;28;20489;-82
2023/09/17 11:31:35;;;;;;;3.70;2.07;;;;;;;31.49;33.54;99178.19;5068950;28;20501;-85
2023/09/17 11:34:05;;;;;;;6.10;2.67;;;;;;;31.48;34.11;99171.91;5074815;28;20453;-86